Time;durP1;ratioP1;P1;durP2;ratioP2;P2;SDS_P1;SDS_P2;PMS_P1;PMS_P2;Temp;Humidity;BMP_temperature;BMP_pressure;BME280_temperature;BME280_humidity;BME280_pressure;Samples;Min_cycle;Max_cycle;Signal;HPM_P1;HPM_P2
2021/07/31 00:02:19;;;;;;;17.17;13.82;;;23.30;69.30;;;;;;5056575;28;20064;-40
2021/07/31 00:04:45;;;;;;;19.30;13.43;;;23.30;69.30;;;;;;5056323;28;20025;-39
2021/07/31 00:07:11;;;;;;;16.67;13.85;;;23.20;69.20;;;;;;5056087;28;20033;-45
2021/07/31 00:09:36;;;;;;;15.27;13.55;;;23.20;69.20;;;;;;5055900;28;20473;-46
2021/07/31 00:12:02;;;;;;;14.50;12.40;;;23.20;69.30;;;;;;5056249;28;20037;-43
2021/07/31 00:14:31;;;;;;;15.80;12.73;;;23.20;69.20;;;;;;5056049;28;20029;-40
2021/07/31 00:16:57;;;;;;;14.10;12.60;;;23.20;69.30;;;;;;5056035;28;20032;-41
2021/07/31 00:19:23;;;;;;;14.65;13.00;;;23.20;69.20;;;;;;5056117;28;20036;-39
2021/07/31 00:21:50;;;;;;;16.75;12.07;;;23.20;69.30;;;;;;5055721;28;20100;-43
2021/07/31 00:24:15;;;;;;;14.85;12.60;;;23.10;69.20;;;;;;5055915;28;20029;-43
2021/07/31 00:26:41;;;;;;;15.93;13.00;;;23.10;69.30;;;;;;5055776;28;20064;-41
2021/07/31 00:29:07;;;;;;;15.70;12.55;;;23.10;69.20;;;;;;5055721;28;20094;-43
2021/07/31 00:31:32;;;;;;;16.05;12.85;;;23.10;69.20;;;;;;5055958;28;20147;-41
2021/07/31 00:33:58;;;;;;;15.80;13.07;;;23.10;69.10;;;;;;5056212;28;20149;-40
2021/07/31 00:36:24;;;;;;;14.98;12.07;;;23.10;69.20;;;;;;5055922;28;20108;-40
2021/07/31 00:38:50;;;;;;;15.25;12.57;;;23.00;69.10;;;;;;5055795;28;20140;-40
2021/07/31 00:41:16;;;;;;;15.38;12.25;;;23.00;69.10;;;;;;5055762;28;20031;-46
2021/07/31 00:43:42;;;;;;;19.38;11.60;;;23.00;69.10;;;;;;5055822;28;20094;-39
2021/07/31 00:46:08;;;;;;;16.42;13.05;;;23.00;69.20;;;;;;5055546;28;20105;-47
2021/07/31 00:48:34;;;;;;;14.00;12.02;;;23.00;69.20;;;;;;5056050;28;20291;-42
2021/07/31 00:50:59;;;;;;;14.25;11.95;;;23.00;69.20;;;;;;5055728;28;20025;-44
2021/07/31 00:53:25;;;;;;;18.67;12.30;;;23.00;69.20;;;;;;5055816;28;20072;-39
2021/07/31 00:55:54;;;;;;;14.77;12.00;;;23.00;69.20;;;;;;5055607;28;20325;-39
2021/07/31 00:58:20;;;;;;;15.48;13.02;;;23.00;69.20;;;;;;5055757;28;20049;-45
2021/07/31 01:00:45;;;;;;;15.45;12.73;;;23.00;69.10;;;;;;5055510;28;20047;-43
2021/07/31 01:03:11;;;;;;;15.13;12.05;;;22.90;69.10;;;;;;5055423;28;20322;-39
2021/07/31 01:05:37;;;;;;;15.52;12.07;;;22.90;69.00;;;;;;5055470;28;20079;-40
2021/07/31 01:08:03;;;;;;;20.05;13.57;;;22.90;68.90;;;;;;5059671;28;20033;-48
2021/07/31 01:10:29;;;;;;;17.83;12.90;;;22.90;69.00;;;;;;5059450;28;20096;-40
2021/07/31 01:12:57;;;;;;;15.18;12.63;;;22.80;69.60;;;;;;5059694;28;20428;-40
2021/07/31 01:15:23;;;;;;;15.90;12.57;;;22.80;69.00;;;;;;5059254;28;20332;-39
2021/07/31 01:17:49;;;;;;;14.93;13.32;;;22.80;68.90;;;;;;5059655;28;20037;-48
2021/07/31 01:20:14;;;;;;;15.98;11.98;;;22.80;69.00;;;;;;5059178;28;20091;-39
2021/07/31 01:22:40;;;;;;;15.75;12.52;;;22.80;68.90;;;;;;5059213;28;20033;-48
2021/07/31 01:25:06;;;;;;;14.18;12.18;;;22.70;68.90;;;;;;5059184;28;20021;-39
2021/07/31 01:27:34;;;;;;;17.92;13.43;;;22.70;69.00;;;;;;5059473;28;20376;-44
2021/07/31 01:30:00;;;;;;;14.93;12.57;;;22.70;69.00;;;;;;5059323;28;20021;-39
2021/07/31 01:32:25;;;;;;;14.13;12.13;;;22.70;69.20;;;;;;5058860;28;20033;-39
2021/07/31 01:34:51;;;;;;;15.40;11.50;;;22.70;69.20;;;;;;5058918;28;20040;-40
2021/07/31 01:37:17;;;;;;;15.13;12.43;;;22.60;69.20;;;;;;5058743;28;20036;-44
2021/07/31 01:39:42;;;;;;;14.80;12.35;;;22.60;69.20;;;;;;5058623;28;20057;-44
2021/07/31 01:42:08;;;;;;;15.52;13.15;;;22.60;69.30;;;;;;5059205;28;20029;-40
2021/07/31 01:44:34;;;;;;;13.88;12.43;;;22.60;69.30;;;;;;5058499;28;20040;-39
2021/07/31 01:47:00;;;;;;;16.17;12.43;;;22.60;69.30;;;;;;5058671;28;20032;-45
2021/07/31 01:49:26;;;;;;;12.90;11.05;;;22.60;69.30;;;;;;5058539;28;20029;-42
2021/07/31 01:51:51;;;;;;;14.50;11.55;;;22.60;69.30;;;;;;5058909;28;20036;-47
2021/07/31 01:54:17;;;;;;;14.52;12.07;;;22.50;69.20;;;;;;5058806;28;20025;-39
2021/07/31 01:56:47;;;;;;;13.57;11.65;;;22.50;69.20;;;;;;5058481;28;20024;-44
2021/07/31 01:59:13;;;;;;;13.95;12.15;;;22.50;69.20;;;;;;5058677;28;20336;-49
2021/07/31 02:01:38;;;;;;;14.05;10.35;;;22.50;69.20;;;;;;5058377;28;20143;-47
2021/07/31 02:04:04;;;;;;;14.65;12.82;;;22.50;69.10;;;;;;5058836;28;20119;-45
2021/07/31 02:06:29;;;;;;;14.88;12.02;;;22.50;69.20;;;;;;5058432;28;20325;-40
2021/07/31 02:08:55;;;;;;;14.88;12.85;;;22.40;69.20;;;;;;5058735;28;20040;-46
2021/07/31 02:11:21;;;;;;;13.60;11.90;;;22.40;69.20;;;;;;5058285;28;20025;-44
2021/07/31 02:13:46;;;;;;;15.95;13.38;;;22.40;69.30;;;;;;5058701;28;20401;-40
2021/07/31 02:16:20;;;;;;;16.38;12.40;;;22.40;69.30;;;;;;5058093;28;20025;-45
2021/07/31 02:18:46;;;;;;;14.57;12.75;;;22.40;69.50;;;;;;5058051;28;20158;-45
2021/07/31 02:21:11;;;;;;;17.95;13.05;;;22.40;69.60;;;;;;5057987;28;20025;-48
2021/07/31 02:23:37;;;;;;;16.85;13.40;;;22.40;69.70;;;;;;5058542;28;20041;-42
2021/07/31 02:26:02;;;;;;;20.15;13.18;;;22.40;69.70;;;;;;5057080;28;20065;-40
2021/07/31 02:28:28;;;;;;;15.35;12.93;;;22.40;69.80;;;;;;5058416;28;20044;-46
2021/07/31 02:30:54;;;;;;;17.80;13.40;;;22.30;69.80;;;;;;5058011;28;20095;-47
2021/07/31 02:33:19;;;;;;;15.43;12.10;;;22.30;69.80;;;;;;5057912;28;20037;-45
2021/07/31 02:35:47;;;;;;;15.10;13.50;;;22.30;69.90;;;;;;5057884;28;20075;-48
2021/07/31 02:38:13;;;;;;;16.75;13.38;;;22.30;70.00;;;;;;5057795;28;20037;-44
2021/07/31 02:40:38;;;;;;;19.67;13.65;;;22.30;70.00;;;;;;5057783;28;20087;-40
2021/07/31 02:43:04;;;;;;;16.35;13.32;;;22.30;70.10;;;;;;5057784;28;20033;-40
2021/07/31 02:45:30;;;;;;;19.90;13.70;;;22.30;70.00;;;;;;5057925;28;20072;-45
2021/07/31 02:47:55;;;;;;;19.08;12.93;;;22.30;70.20;;;;;;5057971;28;20079;-46
2021/07/31 02:50:21;;;;;;;18.65;13.07;;;22.30;70.80;;;;;;5057759;28;20025;-44
2021/07/31 02:52:47;;;;;;;18.90;13.90;;;22.30;70.30;;;;;;5058131;28;20040;-44
2021/07/31 02:55:12;;;;;;;18.27;13.35;;;22.30;70.30;;;;;;5057343;28;20037;-46
2021/07/31 02:57:38;;;;;;;15.93;12.75;;;22.30;70.30;;;;;;5057664;28;20037;-40
2021/07/31 03:00:06;;;;;;;16.83;13.77;;;22.20;70.40;;;;;;5057587;28;20406;-40
2021/07/31 03:02:31;;;;;;;15.25;13.50;;;22.20;70.40;;;;;;5057658;28;20039;-40
2021/07/31 03:04:57;;;;;;;16.15;13.23;;;22.20;70.60;;;;;;5057291;28;20376;-40
2021/07/31 03:07:22;;;;;;;18.80;13.07;;;22.20;70.60;;;;;;5057434;28;20032;-40
2021/07/31 03:09:48;;;;;;;18.38;13.40;;;22.20;70.60;;;;;;5057062;28;20029;-44
2021/07/31 03:12:15;;;;;;;17.17;12.85;;;22.20;70.70;;;;;;5056976;28;20036;-46
2021/07/31 03:14:42;;;;;;;15.45;11.63;;;22.20;70.60;;;;;;5056987;28;20060;-45
2021/07/31 03:17:08;;;;;;;16.15;12.55;;;22.20;70.60;;;;;;5057061;28;20043;-44
2021/07/31 03:19:33;;;;;;;14.02;12.15;;;22.20;70.60;;;;;;5056814;28;20021;-40
2021/07/31 03:22:02;;;;;;;16.60;13.50;;;22.20;70.70;;;;;;5057053;28;20109;-44
2021/07/31 03:24:29;;;;;;;19.35;12.50;;;22.20;70.70;;;;;;5056958;28;20044;-39
2021/07/31 03:26:54;;;;;;;18.58;14.13;;;22.20;70.80;;;;;;5057081;28;20071;-43
2021/07/31 03:29:20;;;;;;;17.02;13.48;;;22.20;70.80;;;;;;5056135;28;20417;-44
2021/07/31 03:31:46;;;;;;;14.60;11.65;;;22.20;70.70;;;;;;5056396;28;20095;-40
2021/07/31 03:34:13;;;;;;;17.77;13.48;;;22.30;70.60;;;;;;5056879;28;20029;-46
2021/07/31 03:36:38;;;;;;;20.23;16.58;;;22.20;70.70;;;;;;5055449;28;20508;-41
2021/07/31 03:39:04;;;;;;;18.90;14.70;;;22.30;70.70;;;;;;5056526;28;20053;-44
2021/07/31 03:41:30;;;;;;;19.77;14.50;;;22.30;70.70;;;;;;5056558;28;20036;-46
2021/07/31 03:43:56;;;;;;;18.85;14.30;;;22.40;70.70;;;;;;5056870;28;20037;-39
2021/07/31 03:46:21;;;;;;;17.50;13.43;;;22.30;70.60;;;;;;5056243;28;20421;-39
2021/07/31 03:48:47;;;;;;;16.13;12.75;;;22.40;70.60;;;;;;5056658;28;20099;-46
2021/07/31 03:51:14;;;;;;;16.73;13.57;;;22.40;70.50;;;;;;5056119;28;20358;-46
2021/07/31 03:53:40;;;;;;;14.25;11.98;;;22.40;70.30;;;;;;5056586;28;20033;-45
2021/07/31 03:56:07;;;;;;;19.33;12.60;;;22.50;70.50;;;;;;5056312;28;20029;-40
2021/07/31 03:58:33;;;;;;;16.80;12.45;;;22.50;69.60;;;;;;5056575;28;20095;-47
2021/07/31 04:00:59;;;;;;;19.95;11.88;;;22.60;69.50;;;;;;5055936;28;20021;-44
2021/07/31 04:03:24;;;;;;;17.83;12.10;;;22.60;69.40;;;;;;5056525;28;20033;-45
2021/07/31 04:05:50;;;;;;;17.50;12.18;;;22.70;69.50;;;;;;5056221;28;20036;-41
2021/07/31 04:08:16;;;;;;;16.98;11.07;;;22.70;69.40;;;;;;5056089;28;20051;-40
2021/07/31 04:10:41;;;;;;;15.23;11.40;;;22.80;69.40;;;;;;5056281;28;20063;-40
2021/07/31 04:13:07;;;;;;;15.68;12.05;;;22.80;69.30;;;;;;5056009;28;20443;-47
2021/07/31 04:15:33;;;;;;;14.95;12.20;;;22.90;69.10;;;;;;5055715;28;20294;-46
2021/07/31 04:17:59;;;;;;;12.52;11.23;;;22.90;69.10;;;;;;5056448;28;20078;-45
2021/07/31 04:20:24;;;;;;;16.50;11.05;;;23.00;68.90;;;;;;5055754;28;20021;-45
2021/07/31 04:22:50;;;;;;;14.55;11.15;;;23.00;68.70;;;;;;5056009;28;20314;-40
2021/07/31 04:25:15;;;;;;;14.02;11.05;;;23.10;68.60;;;;;;5055684;28;20131;-44
2021/07/31 04:27:41;;;;;;;28.98;11.68;;;23.20;68.50;;;;;;5055969;28;20037;-42
2021/07/31 04:30:07;;;;;;;12.55;10.70;;;23.20;68.50;;;;;;5055735;28;20027;-40
2021/07/31 04:32:33;;;;;;;14.93;10.82;;;23.30;68.30;;;;;;5055742;28;20475;-41
2021/07/31 04:35:00;;;;;;;16.33;10.65;;;23.40;68.20;;;;;;5055327;28;20075;-43
2021/07/31 04:37:26;;;;;;;13.27;10.15;;;23.50;68.10;;;;;;5055667;28;20037;-46
2021/07/31 04:39:52;;;;;;;14.63;10.07;;;23.50;67.90;;;;;;5055447;28;20353;-40
2021/07/31 04:42:17;;;;;;;14.73;9.80;;;23.60;67.90;;;;;;5055575;28;20440;-46
2021/07/31 04:44:43;;;;;;;13.93;9.98;;;23.70;67.80;;;;;;5055632;28;20040;-46
2021/07/31 04:47:08;;;;;;;15.95;10.02;;;23.80;67.50;;;;;;5055491;28;20063;-46
2021/07/31 04:49:37;;;;;;;11.00;8.93;;;23.90;67.00;;;;;;5055082;28;20139;-40
2021/07/31 04:52:07;;;;;;;11.00;9.52;;;24.00;66.90;;;;;;5055204;28;20044;-40
2021/07/31 04:54:37;;;;;;;;;;;24.10;66.40;;;;;;5055900;28;20032;-40
2021/07/31 04:57:03;;;;;;;12.68;8.98;;;24.20;66.70;;;;;;5055430;28;19942;-41
2021/07/31 04:59:28;;;;;;;12.70;8.48;;;24.20;66.50;;;;;;5055284;28;20456;-44
2021/07/31 05:01:54;;;;;;;10.25;7.25;;;24.30;66.20;;;;;;5055517;28;20032;-45
2021/07/31 05:04:19;;;;;;;9.73;7.13;;;24.40;65.80;;;;;;5055213;28;20040;-40
2021/07/31 05:06:45;;;;;;;12.00;7.15;;;24.50;65.20;;;;;;5055240;28;20025;-40
2021/07/31 05:09:10;;;;;;;9.35;7.70;;;24.70;65.20;;;;;;5055349;28;20048;-44
2021/07/31 05:11:37;;;;;;;9.68;8.13;;;24.80;64.70;;;;;;5054852;28;20025;-43
2021/07/31 05:14:03;;;;;;;11.60;7.18;;;24.80;64.60;;;;;;5055401;28;20033;-40
2021/07/31 05:16:28;;;;;;;8.77;7.30;;;25.00;64.20;;;;;;5054829;28;20021;-45
2021/07/31 05:18:54;;;;;;;13.30;7.88;;;25.10;63.20;;;;;;5055462;28;20036;-43
2021/07/31 05:21:20;;;;;;;8.55;6.72;;;25.20;62.60;;;;;;5054558;28;20431;-45
2021/07/31 05:23:46;;;;;;;11.65;6.45;;;25.20;62.30;;;;;;5055120;28;20033;-39
2021/07/31 05:26:11;;;;;;;9.00;7.05;;;25.40;62.50;;;;;;5055241;28;20393;-41
2021/07/31 05:28:37;;;;;;;8.80;6.38;;;25.40;62.30;;;;;;5055177;28;20037;-44
2021/07/31 05:31:03;;;;;;;10.98;7.07;;;25.60;61.70;;;;;;5054924;28;20028;-44
2021/07/31 05:33:29;;;;;;;12.13;6.72;;;25.60;61.30;;;;;;5054815;28;20401;-40
2021/07/31 05:35:54;;;;;;;10.75;6.13;;;25.70;61.20;;;;;;5055023;28;20032;-45
2021/07/31 05:38:20;;;;;;;7.75;5.97;;;25.80;60.70;;;;;;5054839;28;20136;-41
2021/07/31 05:40:45;;;;;;;7.68;5.78;;;25.90;60.30;;;;;;5054547;28;20032;-41
2021/07/31 05:43:11;;;;;;;8.32;6.47;;;26.00;60.30;;;;;;5054705;28;20067;-41
2021/07/31 05:45:37;;;;;;;9.05;6.45;;;26.00;60.10;;;;;;5055077;28;20108;-44
2021/07/31 05:48:03;;;;;;;8.48;5.78;;;26.10;60.10;;;;;;5055048;28;20098;-40
2021/07/31 05:50:28;;;;;;;8.40;5.45;;;26.30;60.40;;;;;;5055198;28;20109;-40
2021/07/31 05:52:54;;;;;;;7.75;6.18;;;26.30;60.20;;;;;;5055489;28;20029;-40
2021/07/31 05:55:20;;;;;;;6.35;5.57;;;26.40;60.30;;;;;;5058225;28;20072;-40
2021/07/31 05:57:45;;;;;;;8.07;5.32;;;26.40;59.90;;;;;;5058758;28;20047;-41
2021/07/31 06:00:12;;;;;;;16.98;7.40;;;26.50;59.40;;;;;;5058311;28;20032;-44
2021/07/31 06:02:37;;;;;;;9.35;7.40;;;26.60;59.30;;;;;;5058463;28;20029;-44
2021/07/31 06:05:03;;;;;;;15.15;10.05;;;26.70;58.90;;;;;;5058287;28;20027;-40
2021/07/31 06:07:29;;;;;;;12.35;9.55;;;26.70;60.00;;;;;;5058424;28;20033;-44
2021/07/31 06:09:54;;;;;;;11.88;8.00;;;26.80;60.10;;;;;;5058238;28;20112;-41
2021/07/31 06:12:21;;;;;;;10.35;8.40;;;26.90;59.50;;;;;;5058137;28;20063;-44
2021/07/31 06:14:48;;;;;;;13.43;8.68;;;26.90;59.70;;;;;;5058307;28;20429;-41
2021/07/31 06:17:13;;;;;;;12.27;9.98;;;27.00;60.00;;;;;;5057707;28;20029;-40
2021/07/31 06:19:40;;;;;;;19.02;10.70;;;27.10;60.30;;;;;;5058066;28;20037;-43
2021/07/31 06:22:05;;;;;;;13.07;10.35;;;27.10;60.70;;;;;;5058168;28;20329;-44
2021/07/31 06:24:31;;;;;;;17.27;10.98;;;27.20;60.90;;;;;;5057518;28;20036;-40
2021/07/31 06:26:57;;;;;;;16.98;11.25;;;27.30;60.90;;;;;;5057756;28;20021;-40
2021/07/31 06:29:23;;;;;;;12.52;9.98;;;27.30;60.80;;;;;;5057813;28;20025;-45
2021/07/31 06:31:49;;;;;;;12.82;10.25;;;27.40;60.20;;;;;;5057584;28;20029;-44
2021/07/31 06:34:15;;;;;;;14.68;11.50;;;27.40;60.10;;;;;;5057394;28;20043;-45
2021/07/31 06:36:42;;;;;;;15.98;12.07;;;27.50;60.20;;;;;;5057657;28;20025;-42
2021/07/31 06:39:08;;;;;;;14.43;12.38;;;27.50;60.30;;;;;;5057246;28;20048;-40
2021/07/31 06:41:34;;;;;;;16.70;12.43;;;27.60;60.40;;;;;;5057392;28;20421;-44
2021/07/31 06:43:59;;;;;;;12.38;11.05;;;27.70;60.40;;;;;;5057682;28;20045;-40
2021/07/31 06:46:26;;;;;;;11.43;9.00;;;27.70;60.50;;;;;;5057375;28;20336;-44
2021/07/31 06:48:55;;;;;;;9.90;8.13;;;27.70;60.20;;;;;;5057818;28;20037;-44
2021/07/31 06:51:22;;;;;;;10.50;8.73;;;27.80;60.70;;;;;;5057118;28;20021;-40
2021/07/31 06:53:49;;;;;;;11.40;7.95;;;27.80;60.00;;;;;;5057468;28;20378;-46
2021/07/31 06:56:15;;;;;;;10.63;8.23;;;27.90;60.10;;;;;;5057082;28;20025;-46
2021/07/31 06:58:40;;;;;;;15.10;10.48;;;27.90;60.10;;;;;;5056161;28;20033;-49
2021/07/31 07:01:13;;;;;;;11.32;8.15;;;28.00;60.50;;;;;;5056939;28;20025;-40
2021/07/31 07:03:41;;;;;;;10.18;7.80;;;28.00;60.20;;;;;;5056650;28;20045;-40
2021/07/31 07:06:08;;;;;;;8.30;7.32;;;28.00;60.30;;;;;;5056921;28;20017;-46
2021/07/31 07:08:34;;;;;;;9.52;6.53;;;28.10;60.20;;;;;;5057164;28;20065;-45
2021/07/31 07:11:00;;;;;;;14.38;7.00;;;28.10;60.40;;;;;;5056567;28;20021;-45
2021/07/31 07:13:27;;;;;;;7.20;6.15;;;28.20;60.50;;;;;;5056666;28;20447;-41
2021/07/31 07:15:53;;;;;;;7.95;6.07;;;28.20;59.70;;;;;;5056545;28;20072;-45
2021/07/31 07:18:18;;;;;;;7.90;6.70;;;28.20;59.90;;;;;;5056657;28;20033;-40
2021/07/31 07:20:45;;;;;;;8.27;7.38;;;28.30;59.70;;;;;;5056513;28;20036;-45
2021/07/31 07:23:11;;;;;;;8.43;6.72;;;28.30;59.60;;;;;;5056661;28;20041;-46
2021/07/31 07:25:38;;;;;;;9.80;7.00;;;28.30;59.40;;;;;;5056504;28;20028;-46
2021/07/31 07:28:04;;;;;;;10.63;7.10;;;28.30;59.90;;;;;;5056356;28;20033;-46
2021/07/31 07:30:30;;;;;;;13.07;8.07;;;28.40;60.00;;;;;;5056790;28;20309;-42
2021/07/31 07:32:56;;;;;;;10.63;7.95;;;28.40;60.00;;;;;;5056662;28;20029;-40
2021/07/31 07:35:22;;;;;;;8.60;7.45;;;28.40;60.00;;;;;;5055610;28;20053;-40
2021/07/31 07:37:48;;;;;;;12.10;7.50;;;28.40;60.20;;;;;;5056699;28;20079;-45
2021/07/31 07:40:14;;;;;;;8.80;7.38;;;28.40;60.30;;;;;;5056188;28;20379;-47
2021/07/31 07:42:40;;;;;;;9.68;8.48;;;28.40;60.30;;;;;;5056482;28;20471;-42
2021/07/31 07:45:07;;;;;;;12.25;8.10;;;28.50;60.60;;;;;;5055930;28;20025;-47
2021/07/31 07:47:34;;;;;;;9.45;7.32;;;28.50;60.60;;;;;;5056189;28;20032;-45
2021/07/31 07:50:00;;;;;;;8.77;6.07;;;28.50;60.40;;;;;;5056370;28;20369;-40
2021/07/31 07:52:26;;;;;;;14.05;6.38;;;28.50;60.90;;;;;;5056053;28;20037;-41
2021/07/31 07:54:51;;;;;;;11.88;6.45;;;28.50;60.80;;;;;;5056413;28;20029;-44
2021/07/31 07:57:17;;;;;;;12.50;7.45;;;28.50;60.90;;;;;;5055996;28;20068;-45
2021/07/31 07:59:43;;;;;;;9.25;6.47;;;28.50;61.50;;;;;;5056018;28;20119;-40
2021/07/31 08:02:08;;;;;;;11.13;6.35;;;28.50;60.00;;;;;;5055982;28;20295;-44
2021/07/31 08:04:34;;;;;;;9.23;6.90;;;28.50;60.50;;;;;;5056003;28;20025;-40
2021/07/31 08:07:00;;;;;;;9.68;6.32;;;28.50;61.00;;;;;;5054611;28;20066;-44
2021/07/31 08:09:26;;;;;;;8.60;6.38;;;28.50;61.00;;;;;;5055427;28;20036;-41
2021/07/31 08:11:52;;;;;;;14.32;8.70;;;28.40;61.30;;;;;;5055558;28;20029;-40
2021/07/31 08:14:18;;;;;;;12.63;9.02;;;28.40;61.30;;;;;;5054502;28;20033;-45
2021/07/31 08:16:43;;;;;;;8.70;7.05;;;28.40;61.20;;;;;;5054970;28;20033;-45
2021/07/31 08:19:10;;;;;;;7.90;6.40;;;28.40;60.70;;;;;;5055771;28;20128;-44
2021/07/31 08:21:37;;;;;;;7.50;6.03;;;28.50;60.40;;;;;;5055513;28;20037;-41
2021/07/31 08:24:03;;;;;;;10.60;6.07;;;28.50;60.30;;;;;;5055475;28;20029;-40
2021/07/31 08:26:29;;;;;;;7.80;6.32;;;28.50;60.50;;;;;;5054896;28;20033;-41
2021/07/31 08:28:54;;;;;;;10.25;6.07;;;28.50;60.40;;;;;;5055055;28;20056;-40
2021/07/31 08:31:20;;;;;;;9.23;5.55;;;28.60;60.30;;;;;;5055203;28;20029;-46
2021/07/31 08:33:46;;;;;;;8.52;6.00;;;28.60;59.90;;;;;;5055645;28;20037;-40
2021/07/31 08:36:11;;;;;;;7.22;6.00;;;28.70;59.80;;;;;;5055544;28;20040;-40
2021/07/31 08:38:40;;;;;;;9.27;6.05;;;28.70;59.30;;;;;;5055107;28;20049;-46
2021/07/31 08:41:07;;;;;;;5.97;5.38;;;28.80;59.00;;;;;;5053714;28;20417;-41
2021/07/31 08:43:33;;;;;;;8.40;5.47;;;28.90;59.10;;;;;;5054048;28;20045;-40
2021/07/31 08:46:05;;;;;;;7.75;5.25;;;29.00;59.00;;;;;;5054856;28;20379;-40
2021/07/31 08:48:32;;;;;;;7.82;6.43;;;29.00;58.90;;;;;;5055311;28;20401;-40
2021/07/31 08:51:03;;;;;;;7.75;6.18;;;29.10;58.40;;;;;;5054869;28;20100;-40
2021/07/31 08:53:30;;;;;;;7.25;5.70;;;29.10;57.90;;;;;;5054653;28;20041;-45
2021/07/31 08:56:00;;;;;;;18.42;5.90;;;29.10;58.20;;;;;;5054725;28;20021;-44
2021/07/31 08:58:26;;;;;;;6.63;5.55;;;29.10;58.20;;;;;;5055258;28;20029;-47
2021/07/31 09:00:54;;;;;;;7.57;5.60;;;29.20;58.00;;;;;;5054702;28;20036;-45
2021/07/31 09:03:21;;;;;;;10.00;5.50;;;29.20;57.50;;;;;;5054582;28;20025;-44
2021/07/31 09:05:47;;;;;;;5.38;4.75;;;29.20;56.80;;;;;;5053182;28;20028;-45
2021/07/31 09:08:13;;;;;;;9.65;5.97;;;29.20;57.00;;;;;;5054522;28;20330;-44
2021/07/31 09:10:44;;;;;;;8.20;5.35;;;29.30;56.80;;;;;;5054437;28;20025;-42
2021/07/31 09:13:18;;;;;;;7.65;5.88;;;29.30;56.70;;;;;;5054592;28;20435;-42
2021/07/31 09:15:54;;;;;;;9.82;7.35;;;29.30;56.60;;;;;;5054789;28;20037;-43
2021/07/31 09:18:23;;;;;;;10.57;6.72;;;29.40;56.60;;;;;;5055176;28;20029;-43
2021/07/31 09:21:06;;;;;;;8.57;6.35;;;29.40;56.60;;;;;;5055039;28;20052;-49
2021/07/31 09:23:44;;;;;;;13.38;7.20;;;29.40;56.50;;;;;;5054804;28;20041;-48
2021/07/31 09:26:18;;;;;;;9.13;5.40;;;29.40;56.20;;;;;;5055212;28;20017;-45
2021/07/31 09:28:45;;;;;;;8.13;4.95;;;29.50;56.00;;;;;;5056991;28;20037;-46
2021/07/31 09:31:18;;;;;;;10.32;5.80;;;29.50;55.40;;;;;;5058386;28;20040;-51
2021/07/31 09:33:46;;;;;;;10.43;7.07;;;29.60;55.10;;;;;;5058845;28;20033;-47
2021/07/31 09:36:12;;;;;;;5.78;5.03;;;29.70;54.90;;;;;;5058367;28;20040;-42
2021/07/31 09:38:46;;;;;;;6.20;5.15;;;29.80;55.50;;;;;;5058568;28;20049;-48
2021/07/31 09:41:26;;;;;;;6.22;4.72;;;29.80;54.80;;;;;;5058410;28;20326;-47
2021/07/31 09:44:10;;;;;;;5.82;4.97;;;29.90;54.00;;;;;;5058843;28;20080;-43
2021/07/31 09:46:41;;;;;;;8.73;5.22;;;29.90;54.30;;;;;;5058215;28;20025;-50
2021/07/31 09:49:09;;;;;;;11.63;5.10;;;30.00;54.30;;;;;;5058052;28;20364;-50
2021/07/31 09:51:43;;;;;;;6.25;5.20;;;30.10;53.40;;;;;;5058273;28;20044;-44
2021/07/31 09:54:11;;;;;;;10.45;5.53;;;30.20;54.00;;;;;;5058130;28;20044;-43
2021/07/31 09:56:53;;;;;;;9.57;5.15;;;30.40;53.60;;;;;;5053180;28;20110;-48
2021/07/31 09:59:20;;;;;;;7.00;5.90;;;30.50;52.70;;;;;;5058013;28;20306;-45
2021/07/31 10:01:56;;;;;;;5.65;5.05;;;30.60;52.70;;;;;;5057532;28;20025;-46
2021/07/31 10:04:22;;;;;;;6.60;4.70;;;30.70;52.00;;;;;;5057885;28;20017;-44
2021/07/31 10:06:49;;;;;;;6.07;5.03;;;30.60;51.70;;;;;;5056238;28;20032;-46
2021/07/31 10:09:14;;;;;;;8.77;4.15;;;30.70;52.00;;;;;;5057748;28;20409;-45
2021/07/31 10:11:42;;;;;;;7.97;4.47;;;30.70;51.40;;;;;;5057085;28;20028;-48
2021/07/31 10:14:10;;;;;;;7.22;5.20;;;30.60;51.50;;;;;;5057363;28;20041;-43
2021/07/31 10:16:38;;;;;;;10.20;5.10;;;30.60;51.30;;;;;;5057110;28;20409;-44
2021/07/31 10:19:09;;;;;;;5.97;4.20;;;30.60;51.30;;;;;;5057701;28;20120;-44
2021/07/31 10:22:03;;;;;;;7.82;4.47;;;30.50;51.40;;;;;;5057193;28;20210;-45
2021/07/31 10:25:01;;;;;;;8.27;5.18;;;30.50;52.00;;;;;;5057233;28;20044;-45
2021/07/31 10:27:27;;;;;;;25.27;15.05;;;30.40;52.10;;;;;;5057072;28;20045;-42
2021/07/31 10:29:55;;;;;;;10.73;7.47;;;30.40;52.20;;;;;;5057257;28;20029;-48
2021/07/31 10:32:21;;;;;;;6.47;5.50;;;30.50;51.60;;;;;;5057212;28;20037;-42
2021/07/31 10:34:52;;;;;;;8.57;5.30;;;30.40;51.70;;;;;;5057167;28;20348;-48
2021/07/31 10:37:38;;;;;;;8.60;5.10;;;30.50;52.20;;;;;;5056962;28;20029;-50
2021/07/31 10:40:34;;;;;;;8.65;4.88;;;30.50;51.60;;;;;;5056089;28;20053;-49
2021/07/31 10:43:00;;;;;;;8.93;5.07;;;30.50;51.90;;;;;;5055899;28;20526;-43
2021/07/31 10:45:29;;;;;;;6.60;5.00;;;30.50;51.80;;;;;;5056669;28;20048;-44
2021/07/31 10:47:56;;;;;;;6.15;4.93;;;30.50;52.00;;;;;;5055476;28;20033;-44
2021/07/31 10:50:22;;;;;;;7.88;4.88;;;30.50;51.90;;;;;;5056974;28;20067;-50
2021/07/31 10:52:55;;;;;;;7.35;4.85;;;30.50;52.00;;;;;;5055868;28;20033;-44
2021/07/31 10:55:22;;;;;;;6.35;4.70;;;30.50;51.70;;;;;;5056828;28;20025;-42
2021/07/31 10:57:54;;;;;;;8.70;4.80;;;30.50;52.00;;;;;;5057101;28;20057;-42
2021/07/31 11:00:34;;;;;;;6.55;4.35;;;30.50;52.20;;;;;;5056676;28;20025;-43
2021/07/31 11:03:04;;;;;;;7.40;4.63;;;30.60;53.00;;;;;;5057287;28;20040;-48
2021/07/31 11:05:51;;;;;;;6.43;5.07;;;30.60;52.60;;;;;;5056951;28;20025;-48
2021/07/31 11:08:31;;;;;;;5.28;4.60;;;30.70;51.80;;;;;;5056266;28;20325;-44
2021/07/31 11:11:15;;;;;;;6.18;4.70;;;30.70;51.40;;;;;;5056976;28;20025;-47
2021/07/31 11:13:41;;;;;;;5.75;4.97;;;30.70;51.60;;;;;;5057360;28;20090;-42
2021/07/31 11:16:13;;;;;;;5.38;4.70;;;30.70;51.50;;;;;;5056501;28;20405;-51
2021/07/31 11:18:42;;;;;;;6.95;5.38;;;30.70;52.10;;;;;;5057121;28;20041;-49
2021/07/31 11:21:34;;;;;;;6.82;5.18;;;30.70;52.40;;;;;;5056825;28;20029;-47
2021/07/31 11:24:05;;;;;;;6.28;4.93;;;30.70;51.90;;;;;;5056870;28;20037;-43
2021/07/31 11:26:33;;;;;;;5.55;4.63;;;30.70;52.80;;;;;;5056511;28;20027;-46
2021/07/31 11:29:00;;;;;;;7.28;4.97;;;30.70;52.60;;;;;;5056798;28;20587;-44
2021/07/31 11:31:26;;;;;;;10.48;5.00;;;30.80;52.20;;;;;;5055197;28;20053;-45
2021/07/31 11:34:06;;;;;;;13.75;9.88;;;30.90;52.80;;;;;;5056891;28;20091;-47
2021/07/31 11:36:32;;;;;;;6.75;5.50;;;31.10;50.70;;;;;;5056390;28;20298;-52
2021/07/31 11:38:59;;;;;;;7.00;5.13;;;31.30;50.70;;;;;;5056471;28;20131;-47
2021/07/31 11:41:25;;;;;;;7.50;5.32;;;31.50;50.40;;;;;;5055166;28;20047;-48
2021/07/31 11:43:52;;;;;;;8.35;5.13;;;31.70;49.70;;;;;;5055096;28;20045;-53
2021/07/31 11:46:35;;;;;;;5.80;4.95;;;31.80;49.80;;;;;;5056240;28;20028;-44
2021/07/31 11:49:10;;;;;;;6.85;4.40;;;31.90;49.00;;;;;;5056668;28;20095;-45
2021/07/31 11:51:44;;;;;;;6.88;4.65;;;31.90;49.10;;;;;;5055197;28;20203;-49
2021/07/31 11:54:10;;;;;;;6.90;4.40;;;31.90;49.50;;;;;;5056016;28;20064;-45
2021/07/31 11:56:37;;;;;;;6.18;4.60;;;31.90;49.90;;;;;;5055700;28;20032;-43
2021/07/31 11:59:05;;;;;;;7.78;5.03;;;31.90;49.50;;;;;;5056249;28;20039;-46
2021/07/31 12:01:32;;;;;;;6.95;4.53;;;31.90;49.30;;;;;;5055836;28;20037;-43
2021/07/31 12:03:57;;;;;;;6.40;4.78;;;31.80;49.40;;;;;;5056257;28;20321;-50
2021/07/31 12:06:33;;;;;;;6.18;5.10;;;31.80;49.20;;;;;;5055718;28;20025;-47
2021/07/31 12:09:02;;;;;;;13.25;7.43;;;31.80;48.90;;;;;;5056389;28;20033;-49
2021/07/31 12:11:41;;;;;;;8.80;5.65;;;31.70;48.50;;;;;;5055694;28;20486;-51
2021/07/31 12:14:41;;;;;;;9.57;5.68;;;31.60;49.00;;;;;;5056023;28;20336;-44
2021/07/31 12:17:25;;;;;;;7.25;5.20;;;31.60;49.30;;;;;;5056034;28;20167;-48
2021/07/31 12:19:53;;;;;;;9.77;5.00;;;31.60;49.30;;;;;;5055508;28;20021;-48
2021/07/31 12:22:25;;;;;;;6.90;5.00;;;31.60;49.60;;;;;;5055649;28;20051;-43
2021/07/31 12:25:18;;;;;;;10.13;5.18;;;31.70;49.50;;;;;;5055886;28;20029;-42
2021/07/31 12:27:55;;;;;;;5.90;5.03;;;31.90;50.00;;;;;;5055644;28;20033;-52
2021/07/31 12:30:30;;;;;;;9.95;5.40;;;32.10;49.50;;;;;;5055910;28;20325;-48
2021/07/31 12:33:00;;;;;;;6.03;4.90;;;32.20;50.00;;;;;;5054465;28;20480;-50
2021/07/31 12:35:33;;;;;;;7.88;4.50;;;32.30;49.30;;;;;;5055725;28;20036;-47
2021/07/31 12:37:59;;;;;;;8.43;4.32;;;32.40;49.10;;;;;;5055243;28;20036;-48
2021/07/31 12:40:25;;;;;;;6.88;4.15;;;32.40;48.90;;;;;;5054837;28;20332;-50
2021/07/31 12:42:50;;;;;;;7.70;4.43;;;32.40;48.70;;;;;;5054981;28;20040;-44